sensor_id;sensor_type;location;lat;lon;timestamp;P1;durP1;ratioP1;P2;durP2;ratioP2
35225;SDS011;21813;49.686;21.766;2022-07-17T00:01:34;3.38;;;2.78;;
35225;SDS011;21813;49.686;21.766;2022-07-17T00:04:00;2.67;;;2.25;;
35225;SDS011;21813;49.686;21.766;2022-07-17T00:06:25;4.10;;;2.50;;
35225;SDS011;21813;49.686;21.766;2022-07-17T00:08:52;2.72;;;2.42;;
35225;SDS011;21813;49.686;21.766;2022-07-17T00:11:18;3.60;;;2.72;;
35225;SDS011;21813;49.686;21.766;2022-07-17T00:13:43;7.00;;;2.63;;
35225;SDS011;21813;49.686;21.766;2022-07-17T00:16:10;4.40;;;2.53;;
35225;SDS011;21813;49.686;21.766;2022-07-17T00:18:36;6.25;;;2.92;;
35225;SDS011;21813;49.686;21.766;2022-07-17T00:21:02;5.35;;;2.63;;
35225;SDS011;21813;49.686;21.766;2022-07-17T00:23:28;5.93;;;2.92;;
35225;SDS011;21813;49.686;21.766;2022-07-17T00:25:54;3.88;;;2.63;;
35225;SDS011;21813;49.686;21.766;2022-07-17T00:28:20;4.15;;;2.63;;
35225;SDS011;21813;49.686;21.766;2022-07-17T00:30:46;3.25;;;2.58;;
35225;SDS011;21813;49.686;21.766;2022-07-17T00:33:12;4.90;;;2.78;;
35225;SDS011;21813;49.686;21.766;2022-07-17T00:35:38;13.02;;;2.83;;
35225;SDS011;21813;49.686;21.766;2022-07-17T00:38:05;2.88;;;2.53;;
35225;SDS011;21813;49.686;21.766;2022-07-17T00:40:31;4.22;;;2.58;;
35225;SDS011;21813;49.686;21.766;2022-07-17T00:42:56;4.20;;;2.58;;
35225;SDS011;21813;49.686;21.766;2022-07-17T00:45:24;5.15;;;2.83;;
35225;SDS011;21813;49.686;21.766;2022-07-17T00:47:55;3.47;;;2.70;;
35225;SDS011;21813;49.686;21.766;2022-07-17T00:50:22;5.53;;;2.50;;
35225;SDS011;21813;49.686;21.766;2022-07-17T00:52:52;5.57;;;2.72;;
35225;SDS011;21813;49.686;21.766;2022-07-17T00:55:18;4.90;;;2.97;;
35225;SDS011;21813;49.686;21.766;2022-07-17T00:57:48;4.53;;;2.80;;
35225;SDS011;21813;49.686;21.766;2022-07-17T01:00:16;4.32;;;2.55;;
35225;SDS011;21813;49.686;21.766;2022-07-17T01:02:46;3.40;;;3.10;;
35225;SDS011;21813;49.686;21.766;2022-07-17T01:05:13;5.93;;;2.60;;
35225;SDS011;21813;49.686;21.766;2022-07-17T01:07:39;5.20;;;2.78;;
35225;SDS011;21813;49.686;21.766;2022-07-17T01:10:06;6.97;;;2.95;;
35225;SDS011;21813;49.686;21.766;2022-07-17T01:12:32;3.78;;;3.08;;
35225;SDS011;21813;49.686;21.766;2022-07-17T01:15:00;4.85;;;3.00;;
35225;SDS011;21813;49.686;21.766;2022-07-17T01:17:27;4.32;;;3.28;;
35225;SDS011;21813;49.686;21.766;2022-07-17T01:19:53;3.35;;;3.05;;
35225;SDS011;21813;49.686;21.766;2022-07-17T01:22:23;3.35;;;2.85;;
35225;SDS011;21813;49.686;21.766;2022-07-17T01:24:54;5.50;;;2.95;;
35225;SDS011;21813;49.686;21.766;2022-07-17T01:27:21;7.70;;;3.67;;
35225;SDS011;21813;49.686;21.766;2022-07-17T01:29:47;5.60;;;2.70;;
35225;SDS011;21813;49.686;21.766;2022-07-17T01:32:12;5.63;;;2.58;;
35225;SDS011;21813;49.686;21.766;2022-07-17T01:34:42;4.22;;;3.28;;
35225;SDS011;21813;49.686;21.766;2022-07-17T01:37:08;8.00;;;2.42;;
35225;SDS011;21813;49.686;21.766;2022-07-17T01:39:33;3.92;;;2.90;;
35225;SDS011;21813;49.686;21.766;2022-07-17T01:42:26;3.05;;;2.50;;
35225;SDS011;21813;49.686;21.766;2022-07-17T01:44:53;6.50;;;3.22;;
35225;SDS011;21813;49.686;21.766;2022-07-17T01:47:21;5.10;;;2.78;;
35225;SDS011;21813;49.686;21.766;2022-07-17T01:49:48;4.10;;;2.70;;
35225;SDS011;21813;49.686;21.766;2022-07-17T01:52:16;3.55;;;2.90;;
35225;SDS011;21813;49.686;21.766;2022-07-17T01:54:43;3.35;;;2.95;;
35225;SDS011;21813;49.686;21.766;2022-07-17T01:57:09;4.90;;;3.45;;
35225;SDS011;21813;49.686;21.766;2022-07-17T01:59:35;6.05;;;3.10;;
35225;SDS011;21813;49.686;21.766;2022-07-17T02:02:02;4.20;;;3.08;;
35225;SDS011;21813;49.686;21.766;2022-07-17T02:04:30;3.72;;;2.88;;
35225;SDS011;21813;49.686;21.766;2022-07-17T02:07:00;3.05;;;2.60;;
35225;SDS011;21813;49.686;21.766;2022-07-17T02:09:27;3.92;;;2.72;;
35225;SDS011;21813;49.686;21.766;2022-07-17T02:11:53;5.40;;;3.00;;
35225;SDS011;21813;49.686;21.766;2022-07-17T02:14:19;3.88;;;2.72;;
35225;SDS011;21813;49.686;21.766;2022-07-17T02:16:45;3.17;;;2.60;;
35225;SDS011;21813;49.686;21.766;2022-07-17T02:19:14;3.13;;;2.42;;
35225;SDS011;21813;49.686;21.766;2022-07-17T02:21:39;5.32;;;3.17;;
35225;SDS011;21813;49.686;21.766;2022-07-17T02:24:06;5.68;;;3.05;;
35225;SDS011;21813;49.686;21.766;2022-07-17T02:26:32;6.88;;;3.30;;
35225;SDS011;21813;49.686;21.766;2022-07-17T02:28:58;4.03;;;2.70;;
35225;SDS011;21813;49.686;21.766;2022-07-17T02:31:25;3.58;;;2.30;;
35225;SDS011;21813;49.686;21.766;2022-07-17T02:33:51;5.53;;;2.78;;
35225;SDS011;21813;49.686;21.766;2022-07-17T02:36:17;5.18;;;3.00;;
35225;SDS011;21813;49.686;21.766;2022-07-17T02:38:43;3.90;;;2.60;;
35225;SDS011;21813;49.686;21.766;2022-07-17T02:41:09;4.95;;;2.90;;
35225;SDS011;21813;49.686;21.766;2022-07-17T02:43:35;5.20;;;2.78;;
35225;SDS011;21813;49.686;21.766;2022-07-17T02:46:02;5.43;;;2.70;;
35225;SDS011;21813;49.686;21.766;2022-07-17T02:48:28;2.95;;;2.58;;
35225;SDS011;21813;49.686;21.766;2022-07-17T02:50:54;7.20;;;2.80;;
35225;SDS011;21813;49.686;21.766;2022-07-17T02:53:20;3.65;;;3.10;;
35225;SDS011;21813;49.686;21.766;2022-07-17T02:55:46;5.93;;;2.60;;
35225;SDS011;21813;49.686;21.766;2022-07-17T02:58:12;5.78;;;2.60;;
35225;SDS011;21813;49.686;21.766;2022-07-17T03:00:38;3.10;;;2.75;;
35225;SDS011;21813;49.686;21.766;2022-07-17T03:03:04;5.32;;;3.40;;
35225;SDS011;21813;49.686;21.766;2022-07-17T03:05:29;4.60;;;3.20;;
35225;SDS011;21813;49.686;21.766;2022-07-17T03:07:56;6.18;;;2.72;;
35225;SDS011;21813;49.686;21.766;2022-07-17T03:10:22;3.35;;;2.13;;
35225;SDS011;21813;49.686;21.766;2022-07-17T03:12:48;2.60;;;2.40;;
35225;SDS011;21813;49.686;21.766;2022-07-17T03:15:14;5.93;;;2.70;;
35225;SDS011;21813;49.686;21.766;2022-07-17T03:17:41;2.60;;;2.40;;
35225;SDS011;21813;49.686;21.766;2022-07-17T03:20:08;3.83;;;2.95;;
35225;SDS011;21813;49.686;21.766;2022-07-17T03:22:36;3.20;;;2.90;;
35225;SDS011;21813;49.686;21.766;2022-07-17T03:25:02;4.00;;;2.90;;
35225;SDS011;21813;49.686;21.766;2022-07-17T03:27:28;2.95;;;2.70;;
35225;SDS011;21813;49.686;21.766;2022-07-17T03:29:54;3.63;;;3.03;;
35225;SDS011;21813;49.686;21.766;2022-07-17T03:32:20;4.35;;;2.78;;
35225;SDS011;21813;49.686;21.766;2022-07-17T03:34:46;3.72;;;2.83;;
35225;SDS011;21813;49.686;21.766;2022-07-17T03:37:13;3.92;;;2.72;;
35225;SDS011;21813;49.686;21.766;2022-07-17T03:39:38;3.80;;;2.78;;
35225;SDS011;21813;49.686;21.766;2022-07-17T03:42:04;4.32;;;3.00;;
35225;SDS011;21813;49.686;21.766;2022-07-17T03:44:31;6.05;;;2.80;;
35225;SDS011;21813;49.686;21.766;2022-07-17T03:46:56;5.25;;;2.78;;
35225;SDS011;21813;49.686;21.766;2022-07-17T03:49:22;3.47;;;2.60;;
35225;SDS011;21813;49.686;21.766;2022-07-17T03:51:49;4.07;;;2.92;;
35225;SDS011;21813;49.686;21.766;2022-07-17T03:54:14;3.35;;;2.78;;
35225;SDS011;21813;49.686;21.766;2022-07-17T03:56:40;3.72;;;2.60;;
35225;SDS011;21813;49.686;21.766;2022-07-17T03:59:06;4.43;;;2.35;;
35225;SDS011;21813;49.686;21.766;2022-07-17T04:01:32;7.55;;;3.03;;
35225;SDS011;21813;49.686;21.766;2022-07-17T04:03:58;5.47;;;2.83;;
35225;SDS011;21813;49.686;21.766;2022-07-17T04:06:24;3.10;;;2.55;;
35225;SDS011;21813;49.686;21.766;2022-07-17T04:08:50;5.78;;;2.55;;
35225;SDS011;21813;49.686;21.766;2022-07-17T04:11:15;5.68;;;2.67;;
35225;SDS011;21813;49.686;21.766;2022-07-17T04:13:42;4.75;;;2.35;;
35225;SDS011;21813;49.686;21.766;2022-07-17T04:16:08;4.40;;;2.70;;
35225;SDS011;21813;49.686;21.766;2022-07-17T04:18:34;3.70;;;2.45;;
35225;SDS011;21813;49.686;21.766;2022-07-17T04:21:07;3.72;;;2.60;;
35225;SDS011;21813;49.686;21.766;2022-07-17T04:23:34;4.13;;;2.17;;
35225;SDS011;21813;49.686;21.766;2022-07-17T04:26:01;3.20;;;2.75;;
35225;SDS011;21813;49.686;21.766;2022-07-17T04:28:29;5.30;;;2.42;;
35225;SDS011;21813;49.686;21.766;2022-07-17T04:30:55;2.97;;;2.60;;
35225;SDS011;21813;49.686;21.766;2022-07-17T04:33:21;4.55;;;2.38;;
35225;SDS011;21813;49.686;21.766;2022-07-17T04:35:47;4.63;;;2.92;;
35225;SDS011;21813;49.686;21.766;2022-07-17T04:38:13;7.00;;;2.55;;
35225;SDS011;21813;49.686;21.766;2022-07-17T04:40:39;2.88;;;2.50;;
35225;SDS011;21813;49.686;21.766;2022-07-17T04:43:05;3.38;;;2.50;;
35225;SDS011;21813;49.686;21.766;2022-07-17T04:45:31;6.55;;;2.92;;
35225;SDS011;21813;49.686;21.766;2022-07-17T04:47:57;11.57;;;2.65;;
35225;SDS011;21813;49.686;21.766;2022-07-17T04:50:24;4.60;;;2.83;;
35225;SDS011;21813;49.686;21.766;2022-07-17T04:52:50;6.80;;;3.33;;
35225;SDS011;21813;49.686;21.766;2022-07-17T04:55:16;4.55;;;2.92;;
35225;SDS011;21813;49.686;21.766;2022-07-17T04:57:44;3.72;;;2.95;;
35225;SDS011;21813;49.686;21.766;2022-07-17T05:00:10;2.83;;;2.55;;
35225;SDS011;21813;49.686;21.766;2022-07-17T05:02:36;7.18;;;2.53;;
35225;SDS011;21813;49.686;21.766;2022-07-17T05:05:03;5.70;;;2.67;;
35225;SDS011;21813;49.686;21.766;2022-07-17T05:07:29;5.53;;;2.42;;
35225;SDS011;21813;49.686;21.766;2022-07-17T05:09:55;4.97;;;2.35;;
35225;SDS011;21813;49.686;21.766;2022-07-17T05:12:23;3.78;;;2.30;;
35225;SDS011;21813;49.686;21.766;2022-07-17T05:14:49;4.75;;;2.72;;
35225;SDS011;21813;49.686;21.766;2022-07-17T05:17:14;5.68;;;3.22;;
35225;SDS011;21813;49.686;21.766;2022-07-17T05:19:41;4.35;;;2.70;;
35225;SDS011;21813;49.686;21.766;2022-07-17T05:22:07;5.35;;;2.42;;
35225;SDS011;21813;49.686;21.766;2022-07-17T05:24:33;4.88;;;2.20;;
35225;SDS011;21813;49.686;21.766;2022-07-17T05:26:59;3.58;;;2.42;;
35225;SDS011;21813;49.686;21.766;2022-07-17T05:29:26;7.25;;;2.78;;
35225;SDS011;21813;49.686;21.766;2022-07-17T05:31:52;4.57;;;2.30;;
35225;SDS011;21813;49.686;21.766;2022-07-17T05:34:19;11.40;;;2.80;;
35225;SDS011;21813;49.686;21.766;2022-07-17T05:36:45;4.18;;;2.42;;
35225;SDS011;21813;49.686;21.766;2022-07-17T05:39:11;4.38;;;1.92;;
35225;SDS011;21813;49.686;21.766;2022-07-17T05:41:38;3.35;;;2.10;;
35225;SDS011;21813;49.686;21.766;2022-07-17T05:44:03;4.47;;;3.10;;
35225;SDS011;21813;49.686;21.766;2022-07-17T05:46:30;5.07;;;2.20;;
35225;SDS011;21813;49.686;21.766;2022-07-17T05:48:56;5.88;;;2.30;;
35225;SDS011;21813;49.686;21.766;2022-07-17T05:51:22;4.22;;;2.05;;
35225;SDS011;21813;49.686;21.766;2022-07-17T05:53:47;3.53;;;1.98;;
35225;SDS011;21813;49.686;21.766;2022-07-17T05:56:14;4.60;;;2.28;;
35225;SDS011;21813;49.686;21.766;2022-07-17T05:58:40;6.53;;;1.85;;
35225;SDS011;21813;49.686;21.766;2022-07-17T06:01:06;6.90;;;1.98;;
35225;SDS011;21813;49.686;21.766;2022-07-17T06:03:32;5.05;;;1.85;;
35225;SDS011;21813;49.686;21.766;2022-07-17T06:05:58;7.05;;;2.20;;
35225;SDS011;21813;49.686;21.766;2022-07-17T06:08:23;3.33;;;1.90;;
35225;SDS011;21813;49.686;21.766;2022-07-17T06:10:50;7.38;;;2.00;;
35225;SDS011;21813;49.686;21.766;2022-07-17T06:13:15;7.35;;;2.53;;
35225;SDS011;21813;49.686;21.766;2022-07-17T06:15:41;5.47;;;1.80;;
35225;SDS011;21813;49.686;21.766;2022-07-17T06:18:08;4.00;;;1.88;;
35225;SDS011;21813;49.686;21.766;2022-07-17T06:20:34;3.10;;;1.60;;
35225;SDS011;21813;49.686;21.766;2022-07-17T06:23:00;5.30;;;1.90;;
35225;SDS011;21813;49.686;21.766;2022-07-17T06:25:26;8.88;;;2.33;;
35225;SDS011;21813;49.686;21.766;2022-07-17T06:27:52;4.05;;;1.83;;
35225;SDS011;21813;49.686;21.766;2022-07-17T06:30:18;4.80;;;2.00;;
35225;SDS011;21813;49.686;21.766;2022-07-17T06:32:45;5.40;;;1.90;;
35225;SDS011;21813;49.686;21.766;2022-07-17T06:35:44;2.67;;;1.80;;
35225;SDS011;21813;49.686;21.766;2022-07-17T06:38:09;5.53;;;1.55;;
35225;SDS011;21813;49.686;21.766;2022-07-17T06:40:36;3.38;;;1.52;;
35225;SDS011;21813;49.686;21.766;2022-07-17T06:43:02;2.38;;;1.60;;
35225;SDS011;21813;49.686;21.766;2022-07-17T06:45:30;3.00;;;1.85;;
35225;SDS011;21813;49.686;21.766;2022-07-17T06:47:56;2.65;;;1.80;;
35225;SDS011;21813;49.686;21.766;2022-07-17T06:50:21;10.32;;;2.13;;
35225;SDS011;21813;49.686;21.766;2022-07-17T06:52:48;2.17;;;1.30;;
35225;SDS011;21813;49.686;21.766;2022-07-17T06:55:14;3.25;;;1.65;;
35225;SDS011;21813;49.686;21.766;2022-07-17T06:57:41;5.28;;;1.83;;
35225;SDS011;21813;49.686;21.766;2022-07-17T07:00:07;3.42;;;1.30;;
35225;SDS011;21813;49.686;21.766;2022-07-17T07:02:34;1.38;;;1.15;;
35225;SDS011;21813;49.686;21.766;2022-07-17T07:05:01;2.83;;;1.30;;
35225;SDS011;21813;49.686;21.766;2022-07-17T07:07:27;8.38;;;1.80;;
35225;SDS011;21813;49.686;21.766;2022-07-17T07:09:53;2.88;;;1.45;;
35225;SDS011;21813;49.686;21.766;2022-07-17T07:12:20;7.38;;;1.35;;
35225;SDS011;21813;49.686;21.766;2022-07-17T07:14:55;5.63;;;1.50;;
35225;SDS011;21813;49.686;21.766;2022-07-17T07:17:22;5.32;;;1.20;;
35225;SDS011;21813;49.686;21.766;2022-07-17T07:19:50;4.75;;;1.35;;
35225;SDS011;21813;49.686;21.766;2022-07-17T07:22:16;5.78;;;1.63;;
35225;SDS011;21813;49.686;21.766;2022-07-17T07:27:15;4.15;;;1.17;;
35225;SDS011;21813;49.686;21.766;2022-07-17T07:29:42;4.97;;;1.33;;
35225;SDS011;21813;49.686;21.766;2022-07-17T07:32:08;3.22;;;1.20;;
35225;SDS011;21813;49.686;21.766;2022-07-17T07:34:35;2.30;;;1.20;;
35225;SDS011;21813;49.686;21.766;2022-07-17T07:42:52;2.92;;;1.25;;
35225;SDS011;21813;49.686;21.766;2022-07-17T07:45:27;2.88;;;1.35;;
35225;SDS011;21813;49.686;21.766;2022-07-17T07:47:57;3.05;;;1.30;;
35225;SDS011;21813;49.686;21.766;2022-07-17T07:50:29;3.58;;;1.02;;
35225;SDS011;21813;49.686;21.766;2022-07-17T07:58:35;2.08;;;1.10;;
35225;SDS011;21813;49.686;21.766;2022-07-17T08:01:01;2.58;;;0.80;;
35225;SDS011;21813;49.686;21.766;2022-07-17T08:06:32;1.92;;;1.00;;
35225;SDS011;21813;49.686;21.766;2022-07-17T08:08:58;2.35;;;1.00;;
35225;SDS011;21813;49.686;21.766;2022-07-17T08:11:24;2.95;;;1.05;;
35225;SDS011;21813;49.686;21.766;2022-07-17T08:13:54;3.50;;;1.08;;
35225;SDS011;21813;49.686;21.766;2022-07-17T08:16:26;2.47;;;1.33;;
35225;SDS011;21813;49.686;21.766;2022-07-17T08:18:57;2.80;;;0.98;;
35225;SDS011;21813;49.686;21.766;2022-07-17T08:24:27;2.33;;;1.25;;
35225;SDS011;21813;49.686;21.766;2022-07-17T08:27:07;1.60;;;1.08;;
35225;SDS011;21813;49.686;21.766;2022-07-17T08:29:34;1.60;;;0.88;;
35225;SDS011;21813;49.686;21.766;2022-07-17T08:32:03;2.75;;;1.20;;
35225;SDS011;21813;49.686;21.766;2022-07-17T08:34:42;6.43;;;1.00;;
35225;SDS011;21813;49.686;21.766;2022-07-17T08:37:14;3.78;;;1.08;;
35225;SDS011;21813;49.686;21.766;2022-07-17T08:54:20;2.25;;;0.93;;
35225;SDS011;21813;49.686;21.766;2022-07-17T09:01:10;2.70;;;1.02;;
35225;SDS011;21813;49.686;21.766;2022-07-17T09:03:41;2.47;;;0.70;;
35225;SDS011;21813;49.686;21.766;2022-07-17T09:06:21;2.03;;;1.00;;
35225;SDS011;21813;49.686;21.766;2022-07-17T09:08:47;2.00;;;0.70;;
35225;SDS011;21813;49.686;21.766;2022-07-17T09:11:14;2.72;;;0.95;;
35225;SDS011;21813;49.686;21.766;2022-07-17T09:13:45;2.78;;;1.20;;
35225;SDS011;21813;49.686;21.766;2022-07-17T09:16:19;3.33;;;0.85;;
35225;SDS011;21813;49.686;21.766;2022-07-17T09:18:49;2.75;;;1.10;;
35225;SDS011;21813;49.686;21.766;2022-07-17T09:21:19;1.85;;;1.00;;
35225;SDS011;21813;49.686;21.766;2022-07-17T09:24:16;2.83;;;0.90;;
35225;SDS011;21813;49.686;21.766;2022-07-17T09:26:51;4.05;;;1.00;;
35225;SDS011;21813;49.686;21.766;2022-07-17T09:29:17;1.92;;;0.75;;
35225;SDS011;21813;49.686;21.766;2022-07-17T09:31:44;4.15;;;0.70;;
35225;SDS011;21813;49.686;21.766;2022-07-17T09:34:17;1.92;;;0.95;;
35225;SDS011;21813;49.686;21.766;2022-07-17T09:36:44;2.22;;;0.90;;
35225;SDS011;21813;49.686;21.766;2022-07-17T09:39:10;3.67;;;1.40;;
35225;SDS011;21813;49.686;21.766;2022-07-17T09:41:36;2.08;;;1.15;;
35225;SDS011;21813;49.686;21.766;2022-07-17T09:44:02;4.22;;;0.95;;
35225;SDS011;21813;49.686;21.766;2022-07-17T09:46:32;2.13;;;0.77;;
35225;SDS011;21813;49.686;21.766;2022-07-17T09:49:03;2.38;;;0.88;;
35225;SDS011;21813;49.686;21.766;2022-07-17T09:51:35;2.63;;;0.90;;
35225;SDS011;21813;49.686;21.766;2022-07-17T09:54:04;2.15;;;0.60;;
35225;SDS011;21813;49.686;21.766;2022-07-17T09:56:34;2.33;;;0.50;;
35225;SDS011;21813;49.686;21.766;2022-07-17T09:59:08;1.88;;;0.70;;
35225;SDS011;21813;49.686;21.766;2022-07-17T10:01:38;4.18;;;0.80;;
35225;SDS011;21813;49.686;21.766;2022-07-17T10:04:05;3.80;;;1.00;;
35225;SDS011;21813;49.686;21.766;2022-07-17T10:06:31;2.03;;;0.68;;
35225;SDS011;21813;49.686;21.766;2022-07-17T10:08:59;2.40;;;0.73;;
35225;SDS011;21813;49.686;21.766;2022-07-17T10:11:28;1.20;;;0.85;;
35225;SDS011;21813;49.686;21.766;2022-07-17T10:13:56;2.63;;;1.08;;
35225;SDS011;21813;49.686;21.766;2022-07-17T10:16:30;2.97;;;0.88;;
35225;SDS011;21813;49.686;21.766;2022-07-17T10:18:57;1.73;;;0.60;;
35225;SDS011;21813;49.686;21.766;2022-07-17T10:21:24;3.05;;;0.50;;
35225;SDS011;21813;49.686;21.766;2022-07-17T10:26:34;2.92;;;0.93;;
35225;SDS011;21813;49.686;21.766;2022-07-17T10:29:08;3.40;;;1.38;;
35225;SDS011;21813;49.686;21.766;2022-07-17T10:31:56;2.45;;;0.90;;
35225;SDS011;21813;49.686;21.766;2022-07-17T10:34:39;4.15;;;0.80;;
35225;SDS011;21813;49.686;21.766;2022-07-17T10:37:20;3.53;;;0.77;;
35225;SDS011;21813;49.686;21.766;2022-07-17T10:40:11;1.40;;;0.60;;
35225;SDS011;21813;49.686;21.766;2022-07-17T10:42:47;3.33;;;0.63;;
35225;SDS011;21813;49.686;21.766;2022-07-17T10:45:21;1.58;;;0.60;;
35225;SDS011;21813;49.686;21.766;2022-07-17T10:47:54;2.85;;;0.77;;
35225;SDS011;21813;49.686;21.766;2022-07-17T10:53:02;2.42;;;0.45;;
35225;SDS011;21813;49.686;21.766;2022-07-17T10:55:28;3.55;;;0.85;;
35225;SDS011;21813;49.686;21.766;2022-07-17T10:57:54;1.63;;;0.68;;
35225;SDS011;21813;49.686;21.766;2022-07-17T11:00:30;0.82;;;0.60;;
35225;SDS011;21813;49.686;21.766;2022-07-17T11:03:07;2.92;;;0.52;;
35225;SDS011;21813;49.686;21.766;2022-07-17T11:05:34;3.67;;;0.52;;
35225;SDS011;21813;49.686;21.766;2022-07-17T11:08:01;3.03;;;0.57;;
35225;SDS011;21813;49.686;21.766;2022-07-17T11:10:31;2.30;;;0.90;;
35225;SDS011;21813;49.686;21.766;2022-07-17T11:13:07;2.30;;;0.70;;
35225;SDS011;21813;49.686;21.766;2022-07-17T11:15:44;3.10;;;0.68;;
35225;SDS011;21813;49.686;21.766;2022-07-17T11:18:13;3.60;;;0.70;;
35225;SDS011;21813;49.686;21.766;2022-07-17T11:20:47;0.75;;;0.50;;
35225;SDS011;21813;49.686;21.766;2022-07-17T11:23:14;0.90;;;0.63;;
35225;SDS011;21813;49.686;21.766;2022-07-17T11:25:50;2.05;;;0.50;;
35225;SDS011;21813;49.686;21.766;2022-07-17T11:28:48;4.03;;;0.73;;
35225;SDS011;21813;49.686;21.766;2022-07-17T11:33:55;1.20;;;0.50;;
35225;SDS011;21813;49.686;21.766;2022-07-17T11:36:32;2.00;;;0.50;;
35225;SDS011;21813;49.686;21.766;2022-07-17T11:39:10;0.88;;;0.60;;
35225;SDS011;21813;49.686;21.766;2022-07-17T11:41:38;3.67;;;0.88;;
35225;SDS011;21813;49.686;21.766;2022-07-17T11:44:09;1.38;;;0.50;;
35225;SDS011;21813;49.686;21.766;2022-07-17T11:46:40;1.48;;;0.52;;
35225;SDS011;21813;49.686;21.766;2022-07-17T11:49:09;1.60;;;0.52;;
35225;SDS011;21813;49.686;21.766;2022-07-17T11:51:36;2.97;;;0.60;;
35225;SDS011;21813;49.686;21.766;2022-07-17T11:54:10;3.03;;;0.70;;
35225;SDS011;21813;49.686;21.766;2022-07-17T11:56:43;1.60;;;0.57;;
35225;SDS011;21813;49.686;21.766;2022-07-17T11:59:23;2.25;;;0.68;;
35225;SDS011;21813;49.686;21.766;2022-07-17T12:01:53;2.03;;;0.50;;
35225;SDS011;21813;49.686;21.766;2022-07-17T12:04:19;5.00;;;0.50;;
35225;SDS011;21813;49.686;21.766;2022-07-17T12:06:46;4.28;;;0.73;;
35225;SDS011;21813;49.686;21.766;2022-07-17T12:09:25;3.17;;;0.57;;
35225;SDS011;21813;49.686;21.766;2022-07-17T12:11:54;1.10;;;0.70;;
35225;SDS011;21813;49.686;21.766;2022-07-17T12:14:20;2.60;;;0.50;;
35225;SDS011;21813;49.686;21.766;2022-07-17T12:16:47;2.60;;;0.45;;
35225;SDS011;21813;49.686;21.766;2022-07-17T12:19:14;2.85;;;0.60;;
35225;SDS011;21813;49.686;21.766;2022-07-17T12:22:00;1.10;;;0.55;;
35225;SDS011;21813;49.686;21.766;2022-07-17T12:24:30;2.05;;;0.55;;
35225;SDS011;21813;49.686;21.766;2022-07-17T12:27:02;1.20;;;0.50;;
35225;SDS011;21813;49.686;21.766;2022-07-17T12:29:29;4.15;;;0.70;;
35225;SDS011;21813;49.686;21.766;2022-07-17T12:32:02;1.75;;;0.68;;
35225;SDS011;21813;49.686;21.766;2022-07-17T12:34:29;1.13;;;0.50;;
35225;SDS011;21813;49.686;21.766;2022-07-17T12:36:56;2.13;;;0.52;;
35225;SDS011;21813;49.686;21.766;2022-07-17T12:39:22;1.15;;;0.40;;
35225;SDS011;21813;49.686;21.766;2022-07-17T12:41:47;3.85;;;0.73;;
35225;SDS011;21813;49.686;21.766;2022-07-17T12:44:13;1.17;;;0.50;;
35225;SDS011;21813;49.686;21.766;2022-07-17T12:46:39;1.67;;;0.60;;
35225;SDS011;21813;49.686;21.766;2022-07-17T12:49:05;3.85;;;0.80;;
35225;SDS011;21813;49.686;21.766;2022-07-17T12:51:31;0.65;;;0.47;;
35225;SDS011;21813;49.686;21.766;2022-07-17T12:53:57;1.08;;;0.60;;
35225;SDS011;21813;49.686;21.766;2022-07-17T12:56:23;1.80;;;0.90;;
35225;SDS011;21813;49.686;21.766;2022-07-17T12:58:49;2.10;;;0.50;;
35225;SDS011;21813;49.686;21.766;2022-07-17T13:01:16;2.13;;;0.80;;
35225;SDS011;21813;49.686;21.766;2022-07-17T13:03:42;1.23;;;0.50;;
35225;SDS011;21813;49.686;21.766;2022-07-17T13:06:09;4.32;;;0.68;;
35225;SDS011;21813;49.686;21.766;2022-07-17T13:08:35;1.77;;;0.50;;
35225;SDS011;21813;49.686;21.766;2022-07-17T13:11:01;2.28;;;0.75;;
35225;SDS011;21813;49.686;21.766;2022-07-17T13:13:30;1.25;;;0.52;;
35225;SDS011;21813;49.686;21.766;2022-07-17T13:15:56;3.15;;;0.90;;
35225;SDS011;21813;49.686;21.766;2022-07-17T13:18:22;0.98;;;0.50;;
35225;SDS011;21813;49.686;21.766;2022-07-17T13:20:49;1.63;;;0.60;;
35225;SDS011;21813;49.686;21.766;2022-07-17T13:23:15;1.77;;;0.90;;
35225;SDS011;21813;49.686;21.766;2022-07-17T13:25:41;0.98;;;0.70;;
35225;SDS011;21813;49.686;21.766;2022-07-17T13:28:11;1.42;;;0.73;;
35225;SDS011;21813;49.686;21.766;2022-07-17T13:30:37;3.13;;;0.70;;
35225;SDS011;21813;49.686;21.766;2022-07-17T13:33:03;3.05;;;0.57;;
35225;SDS011;21813;49.686;21.766;2022-07-17T13:35:30;4.10;;;0.60;;
35225;SDS011;21813;49.686;21.766;2022-07-17T13:37:55;2.08;;;0.85;;
35225;SDS011;21813;49.686;21.766;2022-07-17T13:40:27;2.85;;;0.80;;
35225;SDS011;21813;49.686;21.766;2022-07-17T13:42:55;1.88;;;0.65;;
35225;SDS011;21813;49.686;21.766;2022-07-17T13:45:21;1.10;;;0.40;;
35225;SDS011;21813;49.686;21.766;2022-07-17T13:47:47;1.30;;;0.65;;
35225;SDS011;21813;49.686;21.766;2022-07-17T13:50:14;2.00;;;0.50;;
35225;SDS011;21813;49.686;21.766;2022-07-17T13:52:40;3.33;;;0.52;;
35225;SDS011;21813;49.686;21.766;2022-07-17T13:55:06;0.60;;;0.60;;
35225;SDS011;21813;49.686;21.766;2022-07-17T13:57:33;1.15;;;0.80;;
35225;SDS011;21813;49.686;21.766;2022-07-17T13:59:59;2.97;;;0.60;;
35225;SDS011;21813;49.686;21.766;2022-07-17T14:02:26;2.53;;;0.90;;
35225;SDS011;21813;49.686;21.766;2022-07-17T14:04:53;1.52;;;0.50;;
35225;SDS011;21813;49.686;21.766;2022-07-17T14:07:19;1.60;;;0.80;;
35225;SDS011;21813;49.686;21.766;2022-07-17T14:09:44;1.77;;;0.60;;
35225;SDS011;21813;49.686;21.766;2022-07-17T14:12:11;1.02;;;0.65;;
35225;SDS011;21813;49.686;21.766;2022-07-17T14:14:36;3.28;;;0.57;;
35225;SDS011;21813;49.686;21.766;2022-07-17T14:17:02;3.63;;;0.73;;
35225;SDS011;21813;49.686;21.766;2022-07-17T14:19:28;3.40;;;0.60;;
35225;SDS011;21813;49.686;21.766;2022-07-17T14:21:54;2.30;;;0.57;;
35225;SDS011;21813;49.686;21.766;2022-07-17T14:24:20;2.28;;;0.75;;
35225;SDS011;21813;49.686;21.766;2022-07-17T14:26:46;1.23;;;0.52;;
35225;SDS011;21813;49.686;21.766;2022-07-17T14:29:13;2.33;;;0.88;;
35225;SDS011;21813;49.686;21.766;2022-07-17T14:31:39;2.40;;;0.60;;
35225;SDS011;21813;49.686;21.766;2022-07-17T14:34:12;2.03;;;0.60;;
35225;SDS011;21813;49.686;21.766;2022-07-17T14:36:40;1.88;;;0.60;;
35225;SDS011;21813;49.686;21.766;2022-07-17T14:39:06;1.63;;;0.60;;
35225;SDS011;21813;49.686;21.766;2022-07-17T14:41:33;2.20;;;0.60;;
35225;SDS011;21813;49.686;21.766;2022-07-17T14:43:59;2.83;;;0.60;;
35225;SDS011;21813;49.686;21.766;2022-07-17T14:46:24;1.13;;;0.50;;
35225;SDS011;21813;49.686;21.766;2022-07-17T14:48:51;1.48;;;0.68;;
35225;SDS011;21813;49.686;21.766;2022-07-17T14:51:17;2.20;;;0.60;;
35225;SDS011;21813;49.686;21.766;2022-07-17T14:53:43;4.05;;;0.80;;
35225;SDS011;21813;49.686;21.766;2022-07-17T14:56:17;2.60;;;0.57;;
35225;SDS011;21813;49.686;21.766;2022-07-17T14:58:42;1.48;;;0.50;;
35225;SDS011;21813;49.686;21.766;2022-07-17T15:01:18;1.30;;;0.40;;
35225;SDS011;21813;49.686;21.766;2022-07-17T15:06:49;1.60;;;0.43;;
35225;SDS011;21813;49.686;21.766;2022-07-17T15:09:15;4.53;;;0.60;;
35225;SDS011;21813;49.686;21.766;2022-07-17T15:11:41;0.70;;;0.50;;
35225;SDS011;21813;49.686;21.766;2022-07-17T15:14:12;2.60;;;0.60;;
35225;SDS011;21813;49.686;21.766;2022-07-17T15:16:38;1.58;;;0.52;;
35225;SDS011;21813;49.686;21.766;2022-07-17T15:19:03;2.10;;;0.43;;
35225;SDS011;21813;49.686;21.766;2022-07-17T15:21:35;0.70;;;0.40;;
35225;SDS011;21813;49.686;21.766;2022-07-17T15:24:00;1.17;;;0.50;;
35225;SDS011;21813;49.686;21.766;2022-07-17T15:26:26;0.98;;;0.60;;
35225;SDS011;21813;49.686;21.766;2022-07-17T15:28:52;2.70;;;0.60;;